sensor_id;sensor_type;location;lat;lon;timestamp;pressure;altitude;pressure_sealevel;temperature;humidity
75146;BME280;63641;46.526;24.612;2023-10-09T00:01:05;98070.88;;;4.54;70.05
75146;BME280;63641;46.526;24.612;2023-10-09T00:03:43;98073.88;;;4.64;69.68
75146;BME280;63641;46.526;24.612;2023-10-09T00:06:11;98074.38;;;4.73;69.51
75146;BME280;63641;46.526;24.612;2023-10-09T00:08:40;98067.75;;;4.75;69.41
75146;BME280;63641;46.526;24.612;2023-10-09T00:11:11;98073.59;;;4.84;69.20
75146;BME280;63641;46.526;24.612;2023-10-09T00:13:41;98069.06;;;4.84;69.40
75146;BME280;63641;46.526;24.612;2023-10-09T00:16:28;98069.28;;;4.83;69.33
75146;BME280;63641;46.526;24.612;2023-10-09T00:19:03;98069.75;;;4.80;69.45
75146;BME280;63641;46.526;24.612;2023-10-09T00:21:56;98077.53;;;4.81;69.51
75146;BME280;63641;46.526;24.612;2023-10-09T00:24:25;98075.53;;;4.77;69.63
75146;BME280;63641;46.526;24.612;2023-10-09T00:26:55;98079.50;;;4.74;69.59
75146;BME280;63641;46.526;24.612;2023-10-09T00:29:48;98078.53;;;4.69;69.84
75146;BME280;63641;46.526;24.612;2023-10-09T00:32:15;98083.09;;;4.68;70.01
75146;BME280;63641;46.526;24.612;2023-10-09T00:34:43;98067.91;;;4.62;70.05
75146;BME280;63641;46.526;24.612;2023-10-09T00:37:10;98056.81;;;4.58;70.03
75146;BME280;63641;46.526;24.612;2023-10-09T00:39:43;98064.47;;;4.55;70.11
75146;BME280;63641;46.526;24.612;2023-10-09T00:42:11;98076.91;;;4.49;70.09
75146;BME280;63641;46.526;24.612;2023-10-09T00:44:43;98076.91;;;4.49;70.23
75146;BME280;63641;46.526;24.612;2023-10-09T00:47:14;98066.91;;;4.38;70.25
75146;BME280;63641;46.526;24.612;2023-10-09T00:49:55;98084.66;;;4.39;70.28
75146;BME280;63641;46.526;24.612;2023-10-09T00:52:29;98076.44;;;4.34;70.14
75146;BME280;63641;46.526;24.612;2023-10-09T00:55:04;98080.84;;;4.28;70.20
75146;BME280;63641;46.526;24.612;2023-10-09T00:57:45;98065.50;;;4.17;70.21
75146;BME280;63641;46.526;24.612;2023-10-09T01:00:25;98069.69;;;4.13;70.22
75146;BME280;63641;46.526;24.612;2023-10-09T01:03:11;98068.09;;;4.05;70.07
75146;BME280;63641;46.526;24.612;2023-10-09T01:05:49;98071.81;;;4.04;70.02
75146;BME280;63641;46.526;24.612;2023-10-09T01:08:27;98083.41;;;3.98;69.88
75146;BME280;63641;46.526;24.612;2023-10-09T01:10:59;98078.94;;;3.92;69.86
75146;BME280;63641;46.526;24.612;2023-10-09T01:13:46;98088.00;;;3.91;69.96
75146;BME280;63641;46.526;24.612;2023-10-09T01:16:13;98092.38;;;3.85;69.85
75146;BME280;63641;46.526;24.612;2023-10-09T01:18:47;98082.75;;;3.78;69.56
75146;BME280;63641;46.526;24.612;2023-10-09T01:21:18;98085.28;;;3.73;69.93
75146;BME280;63641;46.526;24.612;2023-10-09T01:23:48;98075.22;;;3.68;69.89
75146;BME280;63641;46.526;24.612;2023-10-09T01:26:38;98067.47;;;3.60;69.74
75146;BME280;63641;46.526;24.612;2023-10-09T01:29:07;98070.84;;;3.49;69.96
75146;BME280;63641;46.526;24.612;2023-10-09T01:31:48;98064.53;;;3.43;70.06
75146;BME280;63641;46.526;24.612;2023-10-09T01:34:18;98071.53;;;3.37;70.05
75146;BME280;63641;46.526;24.612;2023-10-09T01:36:46;98079.78;;;3.36;70.17
75146;BME280;63641;46.526;24.612;2023-10-09T01:39:15;98066.50;;;3.23;70.14
75146;BME280;63641;46.526;24.612;2023-10-09T01:41:53;98071.03;;;3.22;70.14
75146;BME280;63641;46.526;24.612;2023-10-09T01:44:28;98087.91;;;3.23;70.12
75146;BME280;63641;46.526;24.612;2023-10-09T01:47:01;98084.00;;;3.19;70.36
75146;BME280;63641;46.526;24.612;2023-10-09T01:49:42;98094.94;;;3.17;70.28
75146;BME280;63641;46.526;24.612;2023-10-09T01:52:10;98083.91;;;3.00;70.10
75146;BME280;63641;46.526;24.612;2023-10-09T01:54:46;98095.16;;;3.09;70.15
75146;BME280;63641;46.526;24.612;2023-10-09T01:57:18;98088.59;;;3.05;70.08
75146;BME280;63641;46.526;24.612;2023-10-09T01:59:52;98060.78;;;2.81;70.31
75146;BME280;63641;46.526;24.612;2023-10-09T02:02:22;98089.91;;;2.96;70.47
75146;BME280;63641;46.526;24.612;2023-10-09T02:04:54;98087.81;;;2.98;70.24
75146;BME280;63641;46.526;24.612;2023-10-09T02:07:21;98091.38;;;2.92;70.40
75146;BME280;63641;46.526;24.612;2023-10-09T02:09:55;98087.66;;;2.93;70.26
75146;BME280;63641;46.526;24.612;2023-10-09T02:12:22;98090.75;;;2.89;70.26
75146;BME280;63641;46.526;24.612;2023-10-09T02:14:51;98094.06;;;2.85;70.52
75146;BME280;63641;46.526;24.612;2023-10-09T02:17:22;98106.81;;;2.83;70.50
75146;BME280;63641;46.526;24.612;2023-10-09T02:19:55;98101.47;;;2.83;70.41
75146;BME280;63641;46.526;24.612;2023-10-09T02:22:22;98091.84;;;2.75;70.51
75146;BME280;63641;46.526;24.612;2023-10-09T02:24:52;98087.75;;;2.73;70.22
75146;BME280;63641;46.526;24.612;2023-10-09T02:27:25;98092.25;;;2.72;70.47
75146;BME280;63641;46.526;24.612;2023-10-09T02:30:28;98089.19;;;2.69;70.51
75146;BME280;63641;46.526;24.612;2023-10-09T02:32:55;98093.31;;;2.64;70.24
75146;BME280;63641;46.526;24.612;2023-10-09T02:35:34;98088.78;;;2.65;70.37
75146;BME280;63641;46.526;24.612;2023-10-09T02:38:05;98097.66;;;2.65;70.45
75146;BME280;63641;46.526;24.612;2023-10-09T02:40:41;98096.63;;;2.66;70.60
75146;BME280;63641;46.526;24.612;2023-10-09T02:43:34;98088.22;;;2.56;70.38
75146;BME280;63641;46.526;24.612;2023-10-09T02:46:28;98088.44;;;2.61;70.25
75146;BME280;63641;46.526;24.612;2023-10-09T02:48:57;98082.88;;;2.56;70.20
75146;BME280;63641;46.526;24.612;2023-10-09T02:51:26;98093.38;;;2.51;70.60
75146;BME280;63641;46.526;24.612;2023-10-09T02:53:57;98090.72;;;2.51;70.34
75146;BME280;63641;46.526;24.612;2023-10-09T02:56:25;98098.13;;;2.42;70.51
75146;BME280;63641;46.526;24.612;2023-10-09T02:59:06;98089.31;;;2.35;70.42
75146;BME280;63641;46.526;24.612;2023-10-09T03:01:35;98103.47;;;2.42;70.72
75146;BME280;63641;46.526;24.612;2023-10-09T03:04:01;98107.41;;;2.40;70.41
75146;BME280;63641;46.526;24.612;2023-10-09T03:06:33;98106.78;;;2.31;70.69
75146;BME280;63641;46.526;24.612;2023-10-09T03:09:04;98104.09;;;2.31;70.72
75146;BME280;63641;46.526;24.612;2023-10-09T03:11:48;98106.59;;;2.26;70.64
75146;BME280;63641;46.526;24.612;2023-10-09T03:14:21;98103.94;;;2.20;70.70
75146;BME280;63641;46.526;24.612;2023-10-09T03:16:53;98115.25;;;2.22;70.31
75146;BME280;63641;46.526;24.612;2023-10-09T03:19:20;98112.97;;;2.18;70.81
75146;BME280;63641;46.526;24.612;2023-10-09T03:21:47;98122.63;;;2.20;70.76
75146;BME280;63641;46.526;24.612;2023-10-09T03:24:14;98128.38;;;2.16;70.45
75146;BME280;63641;46.526;24.612;2023-10-09T03:26:42;98084.88;;;1.83;70.30
75146;BME280;63641;46.526;24.612;2023-10-09T03:29:12;98122.22;;;2.09;70.47
75146;BME280;63641;46.526;24.612;2023-10-09T03:31:39;98129.63;;;2.07;70.69
75146;BME280;63641;46.526;24.612;2023-10-09T03:34:05;98138.25;;;2.03;70.62
75146;BME280;63641;46.526;24.612;2023-10-09T03:36:35;98133.34;;;2.00;70.54
75146;BME280;63641;46.526;24.612;2023-10-09T03:39:05;98136.81;;;2.00;70.34
75146;BME280;63641;46.526;24.612;2023-10-09T03:41:56;98146.03;;;1.91;70.46
75146;BME280;63641;46.526;24.612;2023-10-09T03:44:25;98138.25;;;1.89;70.82
75146;BME280;63641;46.526;24.612;2023-10-09T03:46:55;98126.13;;;1.80;70.78
75146;BME280;63641;46.526;24.612;2023-10-09T03:49:22;98135.00;;;1.81;70.33
75146;BME280;63641;46.526;24.612;2023-10-09T03:51:50;98137.25;;;1.77;70.79
75146;BME280;63641;46.526;24.612;2023-10-09T03:54:17;98137.03;;;1.79;70.43
75146;BME280;63641;46.526;24.612;2023-10-09T03:56:48;98148.09;;;1.76;70.46
75146;BME280;63641;46.526;24.612;2023-10-09T03:59:18;98155.28;;;1.75;70.74
75146;BME280;63641;46.526;24.612;2023-10-09T04:01:48;98155.50;;;1.74;70.48
75146;BME280;63641;46.526;24.612;2023-10-09T04:04:19;98163.69;;;1.72;70.52
75146;BME280;63641;46.526;24.612;2023-10-09T04:06:50;98158.78;;;1.62;70.82
75146;BME280;63641;46.526;24.612;2023-10-09T04:09:20;98154.25;;;1.63;71.00
75146;BME280;63641;46.526;24.612;2023-10-09T04:11:48;98141.09;;;1.61;71.20
75146;BME280;63641;46.526;24.612;2023-10-09T04:14:23;98130.47;;;1.55;70.79
75146;BME280;63641;46.526;24.612;2023-10-09T04:17:14;98157.53;;;1.58;70.93
75146;BME280;63641;46.526;24.612;2023-10-09T04:19:56;98147.03;;;1.50;71.21
75146;BME280;63641;46.526;24.612;2023-10-09T04:22:46;98149.94;;;1.49;70.97
75146;BME280;63641;46.526;24.612;2023-10-09T04:25:27;98149.28;;;1.47;70.90
75146;BME280;63641;46.526;24.612;2023-10-09T04:27:57;98150.75;;;1.49;70.69
75146;BME280;63641;46.526;24.612;2023-10-09T04:30:43;98145.81;;;1.46;70.86
75146;BME280;63641;46.526;24.612;2023-10-09T04:33:13;98143.34;;;1.38;70.58
75146;BME280;63641;46.526;24.612;2023-10-09T04:36:05;98153.19;;;1.37;70.68
75146;BME280;63641;46.526;24.612;2023-10-09T04:38:59;98150.53;;;1.37;70.54
75146;BME280;63641;46.526;24.612;2023-10-09T04:41:29;98137.97;;;1.25;70.89
75146;BME280;63641;46.526;24.612;2023-10-09T04:44:09;98145.75;;;1.19;70.87
75146;BME280;63641;46.526;24.612;2023-10-09T04:46:46;98145.16;;;1.24;71.26
75146;BME280;63641;46.526;24.612;2023-10-09T04:49:33;98151.31;;;1.25;71.15
75146;BME280;63641;46.526;24.612;2023-10-09T04:52:33;98141.47;;;1.18;70.80
75146;BME280;63641;46.526;24.612;2023-10-09T04:55:00;98152.09;;;1.12;71.24
75146;BME280;63641;46.526;24.612;2023-10-09T04:57:41;98146.78;;;1.18;71.24
75146;BME280;63641;46.526;24.612;2023-10-09T05:00:13;98151.91;;;1.20;71.10
75146;BME280;63641;46.526;24.612;2023-10-09T05:02:50;98139.38;;;1.14;71.25
75146;BME280;63641;46.526;24.612;2023-10-09T05:05:31;98136.47;;;1.02;71.46
75146;BME280;63641;46.526;24.612;2023-10-09T05:08:11;98167.47;;;1.03;71.75
75146;BME280;63641;46.526;24.612;2023-10-09T05:11:01;98163.94;;;1.03;72.01
75146;BME280;63641;46.526;24.612;2023-10-09T05:13:36;98152.88;;;0.99;72.03
75146;BME280;63641;46.526;24.612;2023-10-09T05:16:22;98153.28;;;0.96;71.49
75146;BME280;63641;46.526;24.612;2023-10-09T05:18:54;98152.00;;;0.92;71.61
75146;BME280;63641;46.526;24.612;2023-10-09T05:21:32;98156.56;;;0.98;71.58
75146;BME280;63641;46.526;24.612;2023-10-09T05:24:00;98164.59;;;1.05;71.84
75146;BME280;63641;46.526;24.612;2023-10-09T05:26:46;98165.19;;;1.00;71.53
75146;BME280;63641;46.526;24.612;2023-10-09T05:29:20;98164.75;;;0.96;72.03
75146;BME280;63641;46.526;24.612;2023-10-09T05:32:00;98157.34;;;0.92;71.85
75146;BME280;63641;46.526;24.612;2023-10-09T05:34:41;98162.34;;;1.08;71.71
75146;BME280;63641;46.526;24.612;2023-10-09T05:37:32;98150.22;;;1.06;72.09
75146;BME280;63641;46.526;24.612;2023-10-09T05:40:01;98146.09;;;0.96;72.08
75146;BME280;63641;46.526;24.612;2023-10-09T05:42:31;98153.72;;;1.06;72.26
75146;BME280;63641;46.526;24.612;2023-10-09T05:45:05;98157.84;;;1.15;72.24
75146;BME280;63641;46.526;24.612;2023-10-09T05:47:52;98165.88;;;1.22;72.18
75146;BME280;63641;46.526;24.612;2023-10-09T05:50:38;98169.75;;;1.19;72.29
75146;BME280;63641;46.526;24.612;2023-10-09T05:53:25;98164.44;;;1.19;72.04
75146;BME280;63641;46.526;24.612;2023-10-09T05:56:10;98175.94;;;1.27;72.29
75146;BME280;63641;46.526;24.612;2023-10-09T05:58:56;98173.06;;;1.35;72.43
75146;BME280;63641;46.526;24.612;2023-10-09T06:01:26;98165.09;;;1.41;72.07
75146;BME280;63641;46.526;24.612;2023-10-09T06:04:12;98152.56;;;1.35;72.33
75146;BME280;63641;46.526;24.612;2023-10-09T06:06:43;98175.78;;;1.48;72.43
75146;BME280;63641;46.526;24.612;2023-10-09T06:09:13;98185.44;;;1.56;72.63
75146;BME280;63641;46.526;24.612;2023-10-09T06:11:42;98185.44;;;1.56;72.56
75146;BME280;63641;46.526;24.612;2023-10-09T06:14:17;98178.44;;;1.61;72.37
75146;BME280;63641;46.526;24.612;2023-10-09T06:16:57;98191.63;;;1.69;72.86
75146;BME280;63641;46.526;24.612;2023-10-09T06:19:24;98177.66;;;1.67;72.67
75146;BME280;63641;46.526;24.612;2023-10-09T06:21:56;98196.75;;;1.78;72.98
75146;BME280;63641;46.526;24.612;2023-10-09T06:24:40;98203.34;;;1.82;72.75
75146;BME280;63641;46.526;24.612;2023-10-09T06:27:23;98212.97;;;1.89;72.88
75146;BME280;63641;46.526;24.612;2023-10-09T06:29:59;98216.66;;;1.95;72.74
75146;BME280;63641;46.526;24.612;2023-10-09T06:32:44;98214.63;;;1.97;72.70
75146;BME280;63641;46.526;24.612;2023-10-09T06:35:18;98218.94;;;2.05;72.95
75146;BME280;63641;46.526;24.612;2023-10-09T06:37:49;98190.63;;;2.04;73.12
75146;BME280;63641;46.526;24.612;2023-10-09T06:40:36;98208.47;;;2.16;73.04
75146;BME280;63641;46.526;24.612;2023-10-09T06:43:22;98213.81;;;2.23;73.15
75146;BME280;63641;46.526;24.612;2023-10-09T06:45:54;98209.69;;;2.34;73.05
75146;BME280;63641;46.526;24.612;2023-10-09T06:48:22;98205.19;;;2.41;72.97
75146;BME280;63641;46.526;24.612;2023-10-09T06:51:08;98204.78;;;2.51;73.12
75146;BME280;63641;46.526;24.612;2023-10-09T06:53:57;98223.25;;;2.65;72.74
75146;BME280;63641;46.526;24.612;2023-10-09T06:56:29;98203.50;;;2.66;72.95
75146;BME280;63641;46.526;24.612;2023-10-09T06:59:00;98200.19;;;2.78;72.87
75146;BME280;63641;46.526;24.612;2023-10-09T07:01:48;98200.75;;;2.93;73.00
75146;BME280;63641;46.526;24.612;2023-10-09T07:04:34;98189.41;;;3.04;72.71
75146;BME280;63641;46.526;24.612;2023-10-09T07:07:02;98185.66;;;3.12;72.62
75146;BME280;63641;46.526;24.612;2023-10-09T07:09:33;98184.00;;;3.18;72.43
75146;BME280;63641;46.526;24.612;2023-10-09T07:12:10;98194.81;;;3.36;72.42
75146;BME280;63641;46.526;24.612;2023-10-09T07:14:41;98190.47;;;3.42;72.28
75146;BME280;63641;46.526;24.612;2023-10-09T07:17:09;98188.53;;;3.55;72.24
75146;BME280;63641;46.526;24.612;2023-10-09T07:19:55;98182.09;;;3.63;71.85
75146;BME280;63641;46.526;24.612;2023-10-09T07:22:22;98174.59;;;3.78;71.84
75146;BME280;63641;46.526;24.612;2023-10-09T07:24:51;98180.69;;;3.92;71.33
75146;BME280;63641;46.526;24.612;2023-10-09T07:27:38;98186.53;;;4.07;71.30
75146;BME280;63641;46.526;24.612;2023-10-09T07:30:15;98190.75;;;4.22;71.16
75146;BME280;63641;46.526;24.612;2023-10-09T07:33:04;98189.34;;;4.38;70.46
75146;BME280;63641;46.526;24.612;2023-10-09T07:35:40;98178.75;;;4.49;70.00
75146;BME280;63641;46.526;24.612;2023-10-09T07:38:20;98172.81;;;4.66;69.65
75146;BME280;63641;46.526;24.612;2023-10-09T07:40:48;98179.22;;;4.83;69.58
75146;BME280;63641;46.526;24.612;2023-10-09T07:43:38;98174.22;;;5.05;69.23
75146;BME280;63641;46.526;24.612;2023-10-09T07:46:15;98165.44;;;5.16;68.70
75146;BME280;63641;46.526;24.612;2023-10-09T07:49:19;98170.75;;;5.35;68.37
75146;BME280;63641;46.526;24.612;2023-10-09T07:51:52;98173.78;;;5.56;67.97
75146;BME280;63641;46.526;24.612;2023-10-09T07:54:22;98156.88;;;5.68;67.48
75146;BME280;63641;46.526;24.612;2023-10-09T07:56:59;98150.97;;;5.89;66.89
75146;BME280;63641;46.526;24.612;2023-10-09T07:59:35;98153.81;;;6.06;66.71
75146;BME280;63641;46.526;24.612;2023-10-09T08:02:07;98137.59;;;6.13;66.18
75146;BME280;63641;46.526;24.612;2023-10-09T08:04:40;98139.00;;;6.39;65.56
75146;BME280;63641;46.526;24.612;2023-10-09T08:07:16;98132.81;;;6.50;65.13
75146;BME280;63641;46.526;24.612;2023-10-09T08:10:07;98111.75;;;6.59;64.96
75146;BME280;63641;46.526;24.612;2023-10-09T08:12:41;98124.69;;;6.85;64.33
75146;BME280;63641;46.526;24.612;2023-10-09T08:15:47;98116.81;;;7.07;63.58
75146;BME280;63641;46.526;24.612;2023-10-09T08:18:19;98113.19;;;7.30;62.75
75146;BME280;63641;46.526;24.612;2023-10-09T08:20:55;98117.06;;;7.51;62.11
75146;BME280;63641;46.526;24.612;2023-10-09T08:23:28;98122.75;;;7.66;61.17
75146;BME280;63641;46.526;24.612;2023-10-09T08:26:16;98109.28;;;7.83;60.61
75146;BME280;63641;46.526;24.612;2023-10-09T08:28:56;98101.22;;;8.00;60.01
75146;BME280;63641;46.526;24.612;2023-10-09T08:31:42;98115.09;;;8.26;59.45
75146;BME280;63641;46.526;24.612;2023-10-09T08:34:13;98110.81;;;8.46;58.45
75146;BME280;63641;46.526;24.612;2023-10-09T08:37:20;98104.31;;;8.64;58.06
75146;BME280;63641;46.526;24.612;2023-10-09T08:39:51;98106.09;;;8.76;57.56
75146;BME280;63641;46.526;24.612;2023-10-09T08:42:18;98100.59;;;8.87;57.03
75146;BME280;63641;46.526;24.612;2023-10-09T08:44:45;98095.91;;;9.05;56.93
75146;BME280;63641;46.526;24.612;2023-10-09T08:47:13;98090.75;;;9.25;56.72
75146;BME280;63641;46.526;24.612;2023-10-09T08:49:40;98085.50;;;9.40;56.46
75146;BME280;63641;46.526;24.612;2023-10-09T08:52:09;98069.66;;;9.49;56.13
75146;BME280;63641;46.526;24.612;2023-10-09T08:54:37;98082.25;;;9.65;55.76
75146;BME280;63641;46.526;24.612;2023-10-09T08:57:04;98065.75;;;9.67;55.50
75146;BME280;63641;46.526;24.612;2023-10-09T08:59:41;98068.56;;;9.77;55.25
75146;BME280;63641;46.526;24.612;2023-10-09T09:02:12;98065.06;;;9.82;55.06
75146;BME280;63641;46.526;24.612;2023-10-09T09:04:42;98067.84;;;9.87;55.06
75146;BME280;63641;46.526;24.612;2023-10-09T09:07:29;98061.13;;;9.95;54.96
75146;BME280;63641;46.526;24.612;2023-10-09T09:09:59;98041.16;;;10.01;54.54
75146;BME280;63641;46.526;24.612;2023-10-09T09:12:44;98042.84;;;10.12;53.98
75146;BME280;63641;46.526;24.612;2023-10-09T09:15:15;98038.81;;;10.09;53.59
75146;BME280;63641;46.526;24.612;2023-10-09T09:18:06;98034.06;;;10.27;53.81
75146;BME280;63641;46.526;24.612;2023-10-09T09:20:37;98006.75;;;10.28;53.99
75146;BME280;63641;46.526;24.612;2023-10-09T09:23:09;98022.25;;;10.48;53.47
75146;BME280;63641;46.526;24.612;2023-10-09T09:25:46;98031.22;;;10.54;53.17
75146;BME280;63641;46.526;24.612;2023-10-09T09:28:15;98022.59;;;10.57;52.98
75146;BME280;63641;46.526;24.612;2023-10-09T09:30:48;98034.25;;;10.68;52.40
75146;BME280;63641;46.526;24.612;2023-10-09T09:33:24;98020.75;;;10.78;51.99
75146;BME280;63641;46.526;24.612;2023-10-09T09:36:06;98009.44;;;10.96;52.09
75146;BME280;63641;46.526;24.612;2023-10-09T09:38:35;98021.69;;;11.14;51.43
75146;BME280;63641;46.526;24.612;2023-10-09T09:41:15;98014.13;;;11.26;51.01
75146;BME280;63641;46.526;24.612;2023-10-09T09:43:56;98012.50;;;11.35;50.64
75146;BME280;63641;46.526;24.612;2023-10-09T09:46:23;98007.38;;;11.44;50.37
75146;BME280;63641;46.526;24.612;2023-10-09T09:49:01;98003.31;;;11.52;49.96
75146;BME280;63641;46.526;24.612;2023-10-09T09:51:30;98003.06;;;11.64;49.69
75146;BME280;63641;46.526;24.612;2023-10-09T09:53:56;97990.84;;;11.71;49.17
75146;BME280;63641;46.526;24.612;2023-10-09T09:56:25;97977.28;;;11.76;48.59
75146;BME280;63641;46.526;24.612;2023-10-09T09:58:52;97994.09;;;11.78;48.43
75146;BME280;63641;46.526;24.612;2023-10-09T10:01:26;97972.66;;;11.77;47.60
75146;BME280;63641;46.526;24.612;2023-10-09T10:03:59;97974.03;;;11.74;47.51
75146;BME280;63641;46.526;24.612;2023-10-09T10:06:29;97970.25;;;11.65;47.61
75146;BME280;63641;46.526;24.612;2023-10-09T10:08:58;97948.00;;;11.63;47.30
75146;BME280;63641;46.526;24.612;2023-10-09T10:11:47;97933.38;;;11.64;47.05
75146;BME280;63641;46.526;24.612;2023-10-09T10:14:20;97941.22;;;11.66;47.10
75146;BME280;63641;46.526;24.612;2023-10-09T10:17:05;97926.84;;;11.70;46.97
75146;BME280;63641;46.526;24.612;2023-10-09T10:19:58;97921.44;;;11.75;47.19
75146;BME280;63641;46.526;24.612;2023-10-09T10:22:49;97922.00;;;11.72;47.18
75146;BME280;63641;46.526;24.612;2023-10-09T10:28:20;97917.66;;;11.61;46.60
75146;BME280;63641;46.526;24.612;2023-10-09T10:30:55;97928.50;;;11.66;46.65
75146;BME280;63641;46.526;24.612;2023-10-09T10:33:28;97925.25;;;11.69;46.81
75146;BME280;63641;46.526;24.612;2023-10-09T10:36:14;97907.34;;;11.68;46.51
75146;BME280;63641;46.526;24.612;2023-10-09T10:39:17;97916.00;;;11.80;46.26
75146;BME280;63641;46.526;24.612;2023-10-09T10:41:54;97894.88;;;11.72;46.04
75146;BME280;63641;46.526;24.612;2023-10-09T10:44:26;97909.75;;;11.80;45.63
75146;BME280;63641;46.526;24.612;2023-10-09T10:47:14;97933.88;;;11.81;45.82
75146;BME280;63641;46.526;24.612;2023-10-09T10:49:53;97927.41;;;11.82;46.06
75146;BME280;63641;46.526;24.612;2023-10-09T10:52:40;97928.22;;;11.88;45.97
75146;BME280;63641;46.526;24.612;2023-10-09T10:55:12;97899.19;;;11.89;46.02
75146;BME280;63641;46.526;24.612;2023-10-09T10:57:58;97899.44;;;11.92;45.76
75146;BME280;63641;46.526;24.612;2023-10-09T11:00:36;97895.09;;;11.96;45.33
75146;BME280;63641;46.526;24.612;2023-10-09T11:03:22;97886.16;;;12.01;45.20
75146;BME280;63641;46.526;24.612;2023-10-09T11:06:29;97881.25;;;12.08;45.25
75146;BME280;63641;46.526;24.612;2023-10-09T11:09:07;97888.25;;;12.14;45.28
75146;BME280;63641;46.526;24.612;2023-10-09T11:11:50;97876.84;;;12.17;45.14
75146;BME280;63641;46.526;24.612;2023-10-09T11:14:45;97869.53;;;12.23;44.43
75146;BME280;63641;46.526;24.612;2023-10-09T11:17:18;97857.53;;;12.34;44.29
75146;BME280;63641;46.526;24.612;2023-10-09T11:19:52;97873.19;;;12.47;44.56
75146;BME280;63641;46.526;24.612;2023-10-09T11:22:19;97879.38;;;12.58;44.37
75146;BME280;63641;46.526;24.612;2023-10-09T11:24:56;97880.41;;;12.67;44.24
75146;BME280;63641;46.526;24.612;2023-10-09T11:27:40;97856.75;;;12.73;44.00
75146;BME280;63641;46.526;24.612;2023-10-09T11:30:17;97878.09;;;12.90;43.73
75146;BME280;63641;46.526;24.612;2023-10-09T11:33:06;97860.63;;;12.96;43.37
75146;BME280;63641;46.526;24.612;2023-10-09T11:35:41;97855.22;;;12.96;43.33
75146;BME280;63641;46.526;24.612;2023-10-09T11:38:10;97853.03;;;12.98;43.34
75146;BME280;63641;46.526;24.612;2023-10-09T11:40:50;97848.47;;;12.93;42.91
75146;BME280;63641;46.526;24.612;2023-10-09T11:43:20;97869.69;;;12.86;42.95
75146;BME280;63641;46.526;24.612;2023-10-09T11:45:50;97858.13;;;12.70;42.83
75146;BME280;63641;46.526;24.612;2023-10-09T11:48:23;97856.00;;;12.62;42.97
75146;BME280;63641;46.526;24.612;2023-10-09T11:51:13;97853.03;;;12.58;43.24
75146;BME280;63641;46.526;24.612;2023-10-09T11:53:46;97841.91;;;12.60;43.32
75146;BME280;63641;46.526;24.612;2023-10-09T11:56:17;97830.47;;;12.63;43.11
75146;BME280;63641;46.526;24.612;2023-10-09T11:58:49;97842.34;;;12.72;42.95
75146;BME280;63641;46.526;24.612;2023-10-09T12:01:19;97831.19;;;12.74;42.81
75146;BME280;63641;46.526;24.612;2023-10-09T12:03:50;97832.84;;;12.75;42.91
75146;BME280;63641;46.526;24.612;2023-10-09T12:06:19;97806.00;;;12.68;42.62
75146;BME280;63641;46.526;24.612;2023-10-09T12:08:46;97796.25;;;12.67;42.89
75146;BME280;63641;46.526;24.612;2023-10-09T12:11:16;97784.03;;;12.65;43.14
75146;BME280;63641;46.526;24.612;2023-10-09T12:14:01;97788.13;;;12.62;43.17
75146;BME280;63641;46.526;24.612;2023-10-09T12:16:28;97778.38;;;12.61;43.42
75146;BME280;63641;46.526;24.612;2023-10-09T12:18:56;97774.31;;;12.58;43.75
75146;BME280;63641;46.526;24.612;2023-10-09T12:21:24;97773.00;;;12.51;43.75
75146;BME280;63641;46.526;24.612;2023-10-09T12:23:50;97783.84;;;12.51;43.88
75146;BME280;63641;46.526;24.612;2023-10-09T12:26:17;97771.16;;;12.46;43.77
75146;BME280;63641;46.526;24.612;2023-10-09T12:28:45;97785.00;;;12.45;43.91
75146;BME280;63641;46.526;24.612;2023-10-09T12:31:17;97742.22;;;12.31;43.97
75146;BME280;63641;46.526;24.612;2023-10-09T12:33:46;97754.41;;;12.34;43.71
75146;BME280;63641;46.526;24.612;2023-10-09T12:36:14;97759.06;;;12.28;43.96
75146;BME280;63641;46.526;24.612;2023-10-09T12:38:47;97732.47;;;12.25;44.02
75146;BME280;63641;46.526;24.612;2023-10-09T12:41:20;97730.31;;;12.27;44.05
75146;BME280;63641;46.526;24.612;2023-10-09T12:43:56;97731.09;;;12.28;44.33
75146;BME280;63641;46.526;24.612;2023-10-09T12:46:26;97716.44;;;12.29;44.57
75146;BME280;63641;46.526;24.612;2023-10-09T12:48:54;97725.94;;;12.31;44.32
75146;BME280;63641;46.526;24.612;2023-10-09T12:51:22;97726.47;;;12.33;44.51
75146;BME280;63641;46.526;24.612;2023-10-09T12:53:55;97728.09;;;12.35;44.43
75146;BME280;63641;46.526;24.612;2023-10-09T12:56:28;97718.03;;;12.35;44.31
75146;BME280;63641;46.526;24.612;2023-10-09T12:59:05;97713.72;;;12.34;44.30
75146;BME280;63641;46.526;24.612;2023-10-09T13:01:33;97708.47;;;12.43;44.41
75146;BME280;63641;46.526;24.612;2023-10-09T13:04:14;97692.44;;;12.46;44.42
75146;BME280;63641;46.526;24.612;2023-10-09T13:06:43;97702.47;;;12.46;44.53
75146;BME280;63641;46.526;24.612;2023-10-09T13:09:15;97694.34;;;12.46;44.55
75146;BME280;63641;46.526;24.612;2023-10-09T13:11:47;97690.84;;;12.40;44.35
75146;BME280;63641;46.526;24.612;2023-10-09T13:14:14;97686.81;;;12.38;44.35
75146;BME280;63641;46.526;24.612;2023-10-09T13:16:48;97669.25;;;12.30;44.38
75146;BME280;63641;46.526;24.612;2023-10-09T13:19:21;97664.69;;;12.20;44.27
75146;BME280;63641;46.526;24.612;2023-10-09T13:21:51;97668.28;;;12.11;44.36
75146;BME280;63641;46.526;24.612;2023-10-09T13:24:18;97669.09;;;12.11;44.37
75146;BME280;63641;46.526;24.612;2023-10-09T13:26:51;97663.16;;;12.04;43.90
75146;BME280;63641;46.526;24.612;2023-10-09T13:29:18;97668.09;;;12.02;44.06
75146;BME280;63641;46.526;24.612;2023-10-09T13:31:50;97604.38;;;11.60;44.51
75146;BME280;63641;46.526;24.612;2023-10-09T13:34:19;97628.34;;;11.77;44.96
75146;BME280;63641;46.526;24.612;2023-10-09T13:36:46;97651.41;;;11.74;45.02
75146;BME280;63641;46.526;24.612;2023-10-09T13:39:31;97646.06;;;11.64;44.82
75146;BME280;63641;46.526;24.612;2023-10-09T13:42:04;97648.75;;;11.69;44.80
75146;BME280;63641;46.526;24.612;2023-10-09T13:44:34;97642.22;;;11.70;44.78